Grosse Tete, Louisiana
Current Conditions -  °F | °C
As of 8:53 AM on Thursday 18 Dec 2014 (Local Time) from KBTR Reporting Station
Scattered Clouds Scattered Clouds  
Wind Chill: 54°   Ceiling: Unl
Heat Index: 54°   Visibility: 10mi
Dew Point: 45°   Wind: 12mph
Humidity: 72%   Direction: 90°E
Pressure: 30.17"   Gusts: NA
Location:  30.41°N, 91.43°W
Report Text: KBTR 181453Z 09010KT 10SM FEW050 SCT110 12/07 A3017 RMK AO2 SLP214 T01220072 51010
Loading
Personal Weather Stations






























Interactive Weather Map New forecast layout! Learn more

10-Day Weather Forecast

Advertisements
Track Severe Weather on mobile